Aérodrome :
LOGIN :

S'inscrire | Disclaimer

   EN    FR    IT 

 










Légende :    VFR   VFR Marginal   IFR   IFR Intensif   IFR Très Intensif
Visi : 
Plafond : 
>= 8 km
>= 3000ft
5 à 8 km
1000 à 3000 ft
1500m à 5 km
500 à 1000 ft
800 à 1500m
200 à 500 ft
< 800m
< 200 ft
Symboles :   Orages  Brouillard  Fortes neiges  Fortes précipitations  Vent > 20 kt
SIGMETs :   Divers  Orages  Givrage  Turbulence  Onde Orograph.  Cendres Volcan.







- Altitude de l'aérodrome : 274 ft
- Code IATA : PUY


LDPL - Pula

DERNIER METAR :
  • 251430Z 27007KT 230V290 CAVOK 26/17 Q1014 NOSIG

METARs EXPIRÉS :
  • 251400Z 30008KT 260V330 CAVOK 26/16 Q1014 TEMPO TSRA FEW030CB
  • 251330Z 27010KT CAVOK 26/18 Q1014 NOSIG
  • 251300Z 25010KT CAVOK 25/17 Q1014 NOSIG
  • 251230Z 27010KT 220V290 CAVOK 26/18 Q1014 NOSIG
  • 251200Z 24010KT 210V270 9999 FEW037 26/18 Q1015 NOSIG

TAF AMD TAF LDPL
Valide du 25 à 13h jusqu'au 26 à 12h UTC


251344Z 2513/2612 27008KT 9999 SCT035 TX26/2512Z TN17/2604Z
PROB40
TEMPO 2514/2518 TSRA FEW030CB BKN035
BECMG 2516/2518 VRB02KT
BECMG 2519/2521 06008KT
Pas de NOTAMs connus pour ce terrain.



MET'MAP, la Météo Aéronautique d'un coup d'oeil ! - Copyright ORBIFLY Décembre 2007 - Disclaimer

ORBIFLY MET'MAP TEAM :

Programmation & Développement : Alexandra Zaïnal
Conception & Développement : Baudouin d'Aumeries
Co-Programmation & Développement : Marc-Olivier Méhu
Soutien technique & logistique : Manuel Goepfert

Contact : metmap@orbifly.com




SOURCES & CREDITS :

   NOAA